sensor_id;sensor_type;location;lat;lon;timestamp;temperature;humidity
18240;DHT22;9244;50.828;4.718;2024-01-25T00:01:47;8.70;99.90
18240;DHT22;9244;50.828;4.718;2024-01-25T00:04:13;8.60;99.90
18240;DHT22;9244;50.828;4.718;2024-01-25T00:06:38;8.60;99.90
18240;DHT22;9244;50.828;4.718;2024-01-25T00:09:04;8.60;99.90
18240;DHT22;9244;50.828;4.718;2024-01-25T00:11:30;8.60;99.90
18240;DHT22;9244;50.828;4.718;2024-01-25T00:13:57;8.60;99.90
18240;DHT22;9244;50.828;4.718;2024-01-25T00:16:23;8.60;99.90
18240;DHT22;9244;50.828;4.718;2024-01-25T00:18:48;8.60;99.90
18240;DHT22;9244;50.828;4.718;2024-01-25T00:21:16;8.60;99.90
18240;DHT22;9244;50.828;4.718;2024-01-25T00:23:42;8.50;99.90
18240;DHT22;9244;50.828;4.718;2024-01-25T00:26:08;8.50;99.90
18240;DHT22;9244;50.828;4.718;2024-01-25T00:28:33;8.50;99.90
18240;DHT22;9244;50.828;4.718;2024-01-25T00:30:59;8.30;99.90
18240;DHT22;9244;50.828;4.718;2024-01-25T00:33:25;8.20;99.90
18240;DHT22;9244;50.828;4.718;2024-01-25T00:35:51;8.30;99.90
18240;DHT22;9244;50.828;4.718;2024-01-25T00:38:17;8.30;99.90
18240;DHT22;9244;50.828;4.718;2024-01-25T00:40:45;8.20;99.90
18240;DHT22;9244;50.828;4.718;2024-01-25T00:43:11;8.20;99.90
18240;DHT22;9244;50.828;4.718;2024-01-25T00:45:39;8.10;99.90
18240;DHT22;9244;50.828;4.718;2024-01-25T00:48:05;8.10;99.90
18240;DHT22;9244;50.828;4.718;2024-01-25T00:50:31;8.10;99.90
18240;DHT22;9244;50.828;4.718;2024-01-25T00:52:57;8.20;99.90
18240;DHT22;9244;50.828;4.718;2024-01-25T00:55:23;8.30;99.90
18240;DHT22;9244;50.828;4.718;2024-01-25T00:57:49;8.30;99.90
18240;DHT22;9244;50.828;4.718;2024-01-25T01:00:18;8.30;99.90
18240;DHT22;9244;50.828;4.718;2024-01-25T01:02:44;8.20;99.90
18240;DHT22;9244;50.828;4.718;2024-01-25T01:05:11;8.10;99.90
18240;DHT22;9244;50.828;4.718;2024-01-25T01:07:38;8.10;99.90
18240;DHT22;9244;50.828;4.718;2024-01-25T01:10:05;8.00;99.90
18240;DHT22;9244;50.828;4.718;2024-01-25T01:12:31;7.90;99.90
18240;DHT22;9244;50.828;4.718;2024-01-25T01:15:01;7.80;99.90
18240;DHT22;9244;50.828;4.718;2024-01-25T01:17:27;7.70;99.90
18240;DHT22;9244;50.828;4.718;2024-01-25T01:19:55;7.70;99.90
18240;DHT22;9244;50.828;4.718;2024-01-25T01:22:23;7.80;99.90
18240;DHT22;9244;50.828;4.718;2024-01-25T01:24:49;7.70;99.90
18240;DHT22;9244;50.828;4.718;2024-01-25T01:27:15;7.70;99.90
18240;DHT22;9244;50.828;4.718;2024-01-25T01:29:41;7.60;99.90
18240;DHT22;9244;50.828;4.718;2024-01-25T01:32:07;7.60;99.90
18240;DHT22;9244;50.828;4.718;2024-01-25T01:34:32;7.50;99.90
18240;DHT22;9244;50.828;4.718;2024-01-25T01:37:00;7.50;99.90
18240;DHT22;9244;50.828;4.718;2024-01-25T01:39:28;7.40;99.90
18240;DHT22;9244;50.828;4.718;2024-01-25T01:41:54;7.40;99.90
18240;DHT22;9244;50.828;4.718;2024-01-25T01:44:20;7.30;99.90
18240;DHT22;9244;50.828;4.718;2024-01-25T01:46:46;7.20;99.90
18240;DHT22;9244;50.828;4.718;2024-01-25T01:49:13;7.20;99.90
18240;DHT22;9244;50.828;4.718;2024-01-25T01:51:40;7.20;99.90
18240;DHT22;9244;50.828;4.718;2024-01-25T01:54:06;7.10;99.90
18240;DHT22;9244;50.828;4.718;2024-01-25T01:56:35;7.10;99.90
18240;DHT22;9244;50.828;4.718;2024-01-25T01:59:05;7.10;99.90
18240;DHT22;9244;50.828;4.718;2024-01-25T02:01:33;7.00;99.90
18240;DHT22;9244;50.828;4.718;2024-01-25T02:04:01;7.00;99.90
18240;DHT22;9244;50.828;4.718;2024-01-25T02:06:27;6.90;99.90
18240;DHT22;9244;50.828;4.718;2024-01-25T02:08:53;6.90;99.90
18240;DHT22;9244;50.828;4.718;2024-01-25T02:11:21;6.80;99.90
18240;DHT22;9244;50.828;4.718;2024-01-25T02:13:47;6.70;99.90
18240;DHT22;9244;50.828;4.718;2024-01-25T02:16:15;6.70;99.90
18240;DHT22;9244;50.828;4.718;2024-01-25T02:18:42;6.70;99.90
18240;DHT22;9244;50.828;4.718;2024-01-25T02:21:07;6.70;99.90
18240;DHT22;9244;50.828;4.718;2024-01-25T02:23:33;6.70;99.90
18240;DHT22;9244;50.828;4.718;2024-01-25T02:25:59;6.70;99.90
18240;DHT22;9244;50.828;4.718;2024-01-25T02:28:25;6.70;99.90
18240;DHT22;9244;50.828;4.718;2024-01-25T02:30:51;6.70;99.90
18240;DHT22;9244;50.828;4.718;2024-01-25T02:33:16;6.70;99.90
18240;DHT22;9244;50.828;4.718;2024-01-25T02:35:47;6.70;99.90
18240;DHT22;9244;50.828;4.718;2024-01-25T02:38:14;6.60;99.90
18240;DHT22;9244;50.828;4.718;2024-01-25T02:40:40;6.60;99.90
18240;DHT22;9244;50.828;4.718;2024-01-25T02:43:06;6.60;99.90
18240;DHT22;9244;50.828;4.718;2024-01-25T02:45:34;6.50;99.90
18240;DHT22;9244;50.828;4.718;2024-01-25T02:47:59;6.50;99.90
18240;DHT22;9244;50.828;4.718;2024-01-25T02:50:27;6.50;99.90
18240;DHT22;9244;50.828;4.718;2024-01-25T02:52:53;6.50;99.90
18240;DHT22;9244;50.828;4.718;2024-01-25T02:55:19;6.40;99.90
18240;DHT22;9244;50.828;4.718;2024-01-25T02:57:45;6.40;99.90
18240;DHT22;9244;50.828;4.718;2024-01-25T03:00:11;6.40;99.90
18240;DHT22;9244;50.828;4.718;2024-01-25T03:02:39;6.30;99.90
18240;DHT22;9244;50.828;4.718;2024-01-25T03:05:04;6.30;99.90
18240;DHT22;9244;50.828;4.718;2024-01-25T03:07:30;6.20;99.90
18240;DHT22;9244;50.828;4.718;2024-01-25T03:09:56;6.10;99.90
18240;DHT22;9244;50.828;4.718;2024-01-25T03:12:21;6.10;99.90
18240;DHT22;9244;50.828;4.718;2024-01-25T03:14:48;6.20;99.90
18240;DHT22;9244;50.828;4.718;2024-01-25T03:17:14;6.20;99.90
18240;DHT22;9244;50.828;4.718;2024-01-25T03:19:42;6.10;99.90
18240;DHT22;9244;50.828;4.718;2024-01-25T03:22:07;6.00;99.90
18240;DHT22;9244;50.828;4.718;2024-01-25T03:24:36;6.00;99.90
18240;DHT22;9244;50.828;4.718;2024-01-25T03:27:02;6.00;99.90
18240;DHT22;9244;50.828;4.718;2024-01-25T03:29:28;6.10;99.90
18240;DHT22;9244;50.828;4.718;2024-01-25T03:31:54;6.00;99.90
18240;DHT22;9244;50.828;4.718;2024-01-25T03:34:22;5.90;99.90
18240;DHT22;9244;50.828;4.718;2024-01-25T03:36:47;5.80;99.90
18240;DHT22;9244;50.828;4.718;2024-01-25T03:39:13;5.80;99.90
18240;DHT22;9244;50.828;4.718;2024-01-25T03:41:39;5.70;99.90
18240;DHT22;9244;50.828;4.718;2024-01-25T03:44:04;5.70;99.90
18240;DHT22;9244;50.828;4.718;2024-01-25T03:46:30;5.70;99.90
18240;DHT22;9244;50.828;4.718;2024-01-25T03:48:55;5.70;99.90
18240;DHT22;9244;50.828;4.718;2024-01-25T03:51:21;5.80;99.90
18240;DHT22;9244;50.828;4.718;2024-01-25T03:53:49;5.90;99.90
18240;DHT22;9244;50.828;4.718;2024-01-25T03:56:15;5.80;99.90
18240;DHT22;9244;50.828;4.718;2024-01-25T03:58:44;5.60;99.90
18240;DHT22;9244;50.828;4.718;2024-01-25T04:01:09;5.60;99.90
18240;DHT22;9244;50.828;4.718;2024-01-25T04:03:35;5.50;99.90
18240;DHT22;9244;50.828;4.718;2024-01-25T04:06:01;5.70;99.90
18240;DHT22;9244;50.828;4.718;2024-01-25T04:08:27;5.70;99.90
18240;DHT22;9244;50.828;4.718;2024-01-25T04:10:53;5.50;99.90
18240;DHT22;9244;50.828;4.718;2024-01-25T04:13:18;5.50;99.90
18240;DHT22;9244;50.828;4.718;2024-01-25T04:15:46;5.80;99.90
18240;DHT22;9244;50.828;4.718;2024-01-25T04:18:14;5.80;99.90
18240;DHT22;9244;50.828;4.718;2024-01-25T04:20:41;5.80;99.90
18240;DHT22;9244;50.828;4.718;2024-01-25T04:23:09;5.70;99.90
18240;DHT22;9244;50.828;4.718;2024-01-25T04:25:35;5.60;99.90
18240;DHT22;9244;50.828;4.718;2024-01-25T04:28:01;5.50;99.90
18240;DHT22;9244;50.828;4.718;2024-01-25T04:30:29;5.50;99.90
18240;DHT22;9244;50.828;4.718;2024-01-25T04:32:56;5.50;99.90
18240;DHT22;9244;50.828;4.718;2024-01-25T04:35:22;5.50;99.90
18240;DHT22;9244;50.828;4.718;2024-01-25T04:37:52;5.50;99.90
18240;DHT22;9244;50.828;4.718;2024-01-25T04:40:17;5.50;99.90
18240;DHT22;9244;50.828;4.718;2024-01-25T04:42:44;5.60;99.90
18240;DHT22;9244;50.828;4.718;2024-01-25T04:45:12;5.60;99.90
18240;DHT22;9244;50.828;4.718;2024-01-25T04:47:38;5.40;99.90
18240;DHT22;9244;50.828;4.718;2024-01-25T04:50:05;5.40;99.90
18240;DHT22;9244;50.828;4.718;2024-01-25T04:52:31;5.50;99.90
18240;DHT22;9244;50.828;4.718;2024-01-25T04:54:56;5.40;99.90
18240;DHT22;9244;50.828;4.718;2024-01-25T04:57:22;5.30;99.90
18240;DHT22;9244;50.828;4.718;2024-01-25T04:59:50;5.40;99.90
18240;DHT22;9244;50.828;4.718;2024-01-25T05:02:15;5.20;99.90
18240;DHT22;9244;50.828;4.718;2024-01-25T05:04:43;5.20;99.90
18240;DHT22;9244;50.828;4.718;2024-01-25T05:07:09;5.40;99.90
18240;DHT22;9244;50.828;4.718;2024-01-25T05:09:35;5.50;99.90
18240;DHT22;9244;50.828;4.718;2024-01-25T05:12:00;5.40;99.90
18240;DHT22;9244;50.828;4.718;2024-01-25T05:14:30;5.30;99.90
18240;DHT22;9244;50.828;4.718;2024-01-25T05:16:56;5.10;99.90
18240;DHT22;9244;50.828;4.718;2024-01-25T05:19:22;5.00;99.90
18240;DHT22;9244;50.828;4.718;2024-01-25T05:21:47;5.10;99.90
18240;DHT22;9244;50.828;4.718;2024-01-25T05:24:13;5.20;99.90
18240;DHT22;9244;50.828;4.718;2024-01-25T05:26:41;5.20;99.90
18240;DHT22;9244;50.828;4.718;2024-01-25T05:29:07;5.10;99.90
18240;DHT22;9244;50.828;4.718;2024-01-25T05:31:32;4.90;99.90
18240;DHT22;9244;50.828;4.718;2024-01-25T05:33:58;4.80;99.90
18240;DHT22;9244;50.828;4.718;2024-01-25T05:36:26;4.90;99.90
18240;DHT22;9244;50.828;4.718;2024-01-25T05:38:52;4.90;99.90
18240;DHT22;9244;50.828;4.718;2024-01-25T05:41:22;4.90;99.90
18240;DHT22;9244;50.828;4.718;2024-01-25T05:43:47;5.00;99.90
18240;DHT22;9244;50.828;4.718;2024-01-25T05:46:13;5.00;99.90
18240;DHT22;9244;50.828;4.718;2024-01-25T05:48:39;5.00;99.90
18240;DHT22;9244;50.828;4.718;2024-01-25T05:51:05;4.90;99.90
18240;DHT22;9244;50.828;4.718;2024-01-25T05:53:30;5.00;99.90
18240;DHT22;9244;50.828;4.718;2024-01-25T05:55:58;5.00;99.90
18240;DHT22;9244;50.828;4.718;2024-01-25T05:58:24;5.00;99.90
18240;DHT22;9244;50.828;4.718;2024-01-25T06:00:50;5.00;99.90
18240;DHT22;9244;50.828;4.718;2024-01-25T06:03:16;4.90;99.90
18240;DHT22;9244;50.828;4.718;2024-01-25T06:05:41;4.80;99.90
18240;DHT22;9244;50.828;4.718;2024-01-25T06:08:07;4.80;99.90
18240;DHT22;9244;50.828;4.718;2024-01-25T06:10:37;4.90;99.90
18240;DHT22;9244;50.828;4.718;2024-01-25T06:13:05;5.10;99.90
18240;DHT22;9244;50.828;4.718;2024-01-25T06:15:32;5.10;99.90
18240;DHT22;9244;50.828;4.718;2024-01-25T06:17:58;5.10;99.90
18240;DHT22;9244;50.828;4.718;2024-01-25T06:20:26;5.00;99.90
18240;DHT22;9244;50.828;4.718;2024-01-25T06:22:54;5.00;99.90
18240;DHT22;9244;50.828;4.718;2024-01-25T06:25:19;4.90;99.90
18240;DHT22;9244;50.828;4.718;2024-01-25T06:27:45;5.00;99.90
18240;DHT22;9244;50.828;4.718;2024-01-25T06:30:11;5.00;99.90
18240;DHT22;9244;50.828;4.718;2024-01-25T06:32:37;5.10;99.90
18240;DHT22;9244;50.828;4.718;2024-01-25T06:35:03;5.00;99.90
18240;DHT22;9244;50.828;4.718;2024-01-25T06:37:29;5.00;99.90
18240;DHT22;9244;50.828;4.718;2024-01-25T06:39:55;5.00;99.90
18240;DHT22;9244;50.828;4.718;2024-01-25T06:42:21;5.10;99.90
18240;DHT22;9244;50.828;4.718;2024-01-25T06:44:47;5.20;99.90
18240;DHT22;9244;50.828;4.718;2024-01-25T06:47:13;5.20;99.90
18240;DHT22;9244;50.828;4.718;2024-01-25T06:49:38;5.20;99.90
18240;DHT22;9244;50.828;4.718;2024-01-25T06:52:09;5.20;99.90
18240;DHT22;9244;50.828;4.718;2024-01-25T06:54:34;5.30;99.90
18240;DHT22;9244;50.828;4.718;2024-01-25T06:57:02;5.30;99.90
18240;DHT22;9244;50.828;4.718;2024-01-25T06:59:28;5.30;99.90
18240;DHT22;9244;50.828;4.718;2024-01-25T07:01:54;5.30;99.90
18240;DHT22;9244;50.828;4.718;2024-01-25T07:04:19;5.20;99.90
18240;DHT22;9244;50.828;4.718;2024-01-25T07:06:45;5.10;99.90
18240;DHT22;9244;50.828;4.718;2024-01-25T07:09:11;5.00;99.90
18240;DHT22;9244;50.828;4.718;2024-01-25T07:11:36;5.20;99.90
18240;DHT22;9244;50.828;4.718;2024-01-25T07:14:02;5.30;99.90
18240;DHT22;9244;50.828;4.718;2024-01-25T07:16:30;5.30;99.90
18240;DHT22;9244;50.828;4.718;2024-01-25T07:18:56;5.20;99.90
18240;DHT22;9244;50.828;4.718;2024-01-25T07:21:25;5.20;99.90
18240;DHT22;9244;50.828;4.718;2024-01-25T07:23:50;5.20;99.90
18240;DHT22;9244;50.828;4.718;2024-01-25T07:26:17;5.40;99.90
18240;DHT22;9244;50.828;4.718;2024-01-25T07:28:47;5.40;99.90
18240;DHT22;9244;50.828;4.718;2024-01-25T07:31:12;5.40;99.90
18240;DHT22;9244;50.828;4.718;2024-01-25T07:33:41;5.40;99.90
18240;DHT22;9244;50.828;4.718;2024-01-25T07:36:07;5.30;99.90
18240;DHT22;9244;50.828;4.718;2024-01-25T07:38:33;5.30;99.90
18240;DHT22;9244;50.828;4.718;2024-01-25T07:40:59;5.40;99.90
18240;DHT22;9244;50.828;4.718;2024-01-25T07:43:24;5.40;99.90
18240;DHT22;9244;50.828;4.718;2024-01-25T07:45:52;5.40;99.90
18240;DHT22;9244;50.828;4.718;2024-01-25T07:48:18;5.40;99.90
18240;DHT22;9244;50.828;4.718;2024-01-25T07:50:44;5.30;99.90
18240;DHT22;9244;50.828;4.718;2024-01-25T07:53:09;5.30;99.90
18240;DHT22;9244;50.828;4.718;2024-01-25T07:55:37;5.30;99.90
18240;DHT22;9244;50.828;4.718;2024-01-25T07:58:03;5.30;99.90
18240;DHT22;9244;50.828;4.718;2024-01-25T08:00:28;5.30;99.90
18240;DHT22;9244;50.828;4.718;2024-01-25T08:02:56;5.30;99.90
18240;DHT22;9244;50.828;4.718;2024-01-25T08:05:22;5.40;99.90
18240;DHT22;9244;50.828;4.718;2024-01-25T08:07:50;5.40;99.90
18240;DHT22;9244;50.828;4.718;2024-01-25T08:10:15;5.50;99.90
18240;DHT22;9244;50.828;4.718;2024-01-25T08:12:43;5.50;99.90
18240;DHT22;9244;50.828;4.718;2024-01-25T08:15:11;5.50;99.90
18240;DHT22;9244;50.828;4.718;2024-01-25T08:17:38;5.60;99.90
18240;DHT22;9244;50.828;4.718;2024-01-25T08:20:04;5.60;99.90
18240;DHT22;9244;50.828;4.718;2024-01-25T08:22:31;5.60;99.90
18240;DHT22;9244;50.828;4.718;2024-01-25T08:24:57;5.60;99.90
18240;DHT22;9244;50.828;4.718;2024-01-25T08:27:24;5.70;99.90
18240;DHT22;9244;50.828;4.718;2024-01-25T08:29:51;5.60;99.90
18240;DHT22;9244;50.828;4.718;2024-01-25T08:32:19;5.70;99.90
18240;DHT22;9244;50.828;4.718;2024-01-25T08:34:49;5.80;99.90
18240;DHT22;9244;50.828;4.718;2024-01-25T08:37:15;5.80;99.90
18240;DHT22;9244;50.828;4.718;2024-01-25T08:39:41;5.90;99.90
18240;DHT22;9244;50.828;4.718;2024-01-25T08:42:08;5.90;99.90
18240;DHT22;9244;50.828;4.718;2024-01-25T08:44:39;6.10;99.90
18240;DHT22;9244;50.828;4.718;2024-01-25T08:47:12;6.10;99.90
18240;DHT22;9244;50.828;4.718;2024-01-25T08:49:40;6.00;99.90
18240;DHT22;9244;50.828;4.718;2024-01-25T08:52:06;6.10;99.90
18240;DHT22;9244;50.828;4.718;2024-01-25T08:54:36;6.20;99.90
18240;DHT22;9244;50.828;4.718;2024-01-25T08:57:04;6.10;99.90
18240;DHT22;9244;50.828;4.718;2024-01-25T08:59:30;6.10;99.90
18240;DHT22;9244;50.828;4.718;2024-01-25T09:01:58;6.20;99.90
18240;DHT22;9244;50.828;4.718;2024-01-25T09:04:24;6.30;99.90
18240;DHT22;9244;50.828;4.718;2024-01-25T09:06:49;6.20;99.90
18240;DHT22;9244;50.828;4.718;2024-01-25T09:09:15;6.20;99.90
18240;DHT22;9244;50.828;4.718;2024-01-25T09:11:43;6.20;99.90
18240;DHT22;9244;50.828;4.718;2024-01-25T09:14:11;6.30;99.90
18240;DHT22;9244;50.828;4.718;2024-01-25T09:16:37;6.30;99.90
18240;DHT22;9244;50.828;4.718;2024-01-25T09:19:05;6.30;99.90
18240;DHT22;9244;50.828;4.718;2024-01-25T09:21:30;6.30;99.90
18240;DHT22;9244;50.828;4.718;2024-01-25T09:23:56;6.40;99.90
18240;DHT22;9244;50.828;4.718;2024-01-25T09:26:22;6.50;99.90
18240;DHT22;9244;50.828;4.718;2024-01-25T09:28:47;6.50;99.90
18240;DHT22;9244;50.828;4.718;2024-01-25T09:31:13;6.40;99.90
18240;DHT22;9244;50.828;4.718;2024-01-25T09:33:39;6.50;99.90
18240;DHT22;9244;50.828;4.718;2024-01-25T09:36:05;6.40;99.90
18240;DHT22;9244;50.828;4.718;2024-01-25T09:38:31;6.50;99.90
18240;DHT22;9244;50.828;4.718;2024-01-25T09:41:01;6.50;99.90
18240;DHT22;9244;50.828;4.718;2024-01-25T09:43:27;6.50;99.90
18240;DHT22;9244;50.828;4.718;2024-01-25T09:45:53;6.60;99.90
18240;DHT22;9244;50.828;4.718;2024-01-25T09:48:20;6.60;99.90
18240;DHT22;9244;50.828;4.718;2024-01-25T09:50:47;6.60;99.90
18240;DHT22;9244;50.828;4.718;2024-01-25T09:53:22;6.70;99.90
18240;DHT22;9244;50.828;4.718;2024-01-25T09:56:08;6.70;99.90
18240;DHT22;9244;50.828;4.718;2024-01-25T09:58:43;6.80;99.90
18240;DHT22;9244;50.828;4.718;2024-01-25T10:01:15;6.80;99.90
18240;DHT22;9244;50.828;4.718;2024-01-25T10:03:45;6.90;99.90
18240;DHT22;9244;50.828;4.718;2024-01-25T10:06:14;6.90;99.90
18240;DHT22;9244;50.828;4.718;2024-01-25T10:08:43;7.10;99.90
18240;DHT22;9244;50.828;4.718;2024-01-25T10:11:09;7.10;99.90
18240;DHT22;9244;50.828;4.718;2024-01-25T10:13:44;7.20;99.90
18240;DHT22;9244;50.828;4.718;2024-01-25T10:16:17;7.20;99.90
18240;DHT22;9244;50.828;4.718;2024-01-25T10:18:45;7.20;99.90
18240;DHT22;9244;50.828;4.718;2024-01-25T10:21:13;7.30;99.90
18240;DHT22;9244;50.828;4.718;2024-01-25T10:23:43;7.30;99.90
18240;DHT22;9244;50.828;4.718;2024-01-25T10:26:11;7.40;99.90
18240;DHT22;9244;50.828;4.718;2024-01-25T10:28:37;7.50;99.90
18240;DHT22;9244;50.828;4.718;2024-01-25T10:31:03;7.40;99.90
18240;DHT22;9244;50.828;4.718;2024-01-25T10:33:33;7.40;99.90
18240;DHT22;9244;50.828;4.718;2024-01-25T10:36:00;7.50;99.90
18240;DHT22;9244;50.828;4.718;2024-01-25T10:38:31;7.60;99.90
18240;DHT22;9244;50.828;4.718;2024-01-25T10:41:00;7.70;99.90
18240;DHT22;9244;50.828;4.718;2024-01-25T10:43:27;7.70;99.90
18240;DHT22;9244;50.828;4.718;2024-01-25T10:45:53;7.70;99.90
18240;DHT22;9244;50.828;4.718;2024-01-25T10:48:21;7.80;99.90
18240;DHT22;9244;50.828;4.718;2024-01-25T10:50:49;7.80;99.90
18240;DHT22;9244;50.828;4.718;2024-01-25T10:53:16;7.80;99.90
18240;DHT22;9244;50.828;4.718;2024-01-25T10:55:42;7.80;99.90
18240;DHT22;9244;50.828;4.718;2024-01-25T10:58:08;7.80;99.90
18240;DHT22;9244;50.828;4.718;2024-01-25T11:00:36;7.80;99.90
18240;DHT22;9244;50.828;4.718;2024-01-25T11:03:06;7.90;99.90
18240;DHT22;9244;50.828;4.718;2024-01-25T11:05:32;8.00;99.90
18240;DHT22;9244;50.828;4.718;2024-01-25T11:07:58;8.00;99.90
18240;DHT22;9244;50.828;4.718;2024-01-25T11:10:27;8.00;99.90
18240;DHT22;9244;50.828;4.718;2024-01-25T11:12:57;8.00;99.90
18240;DHT22;9244;50.828;4.718;2024-01-25T11:15:37;8.10;99.90
18240;DHT22;9244;50.828;4.718;2024-01-25T11:18:04;8.20;99.90
18240;DHT22;9244;50.828;4.718;2024-01-25T11:20:35;8.20;99.90
18240;DHT22;9244;50.828;4.718;2024-01-25T11:23:07;8.20;99.90
18240;DHT22;9244;50.828;4.718;2024-01-25T11:25:39;8.30;99.90
18240;DHT22;9244;50.828;4.718;2024-01-25T11:28:07;8.40;99.90
18240;DHT22;9244;50.828;4.718;2024-01-25T11:30:34;8.30;99.90
18240;DHT22;9244;50.828;4.718;2024-01-25T11:33:00;8.30;99.90
18240;DHT22;9244;50.828;4.718;2024-01-25T11:35:29;8.40;99.90
18240;DHT22;9244;50.828;4.718;2024-01-25T11:37:55;8.40;99.90
18240;DHT22;9244;50.828;4.718;2024-01-25T11:40:21;8.50;99.90
18240;DHT22;9244;50.828;4.718;2024-01-25T11:42:52;8.50;99.90
18240;DHT22;9244;50.828;4.718;2024-01-25T11:45:18;8.50;99.90
18240;DHT22;9244;50.828;4.718;2024-01-25T11:47:44;8.50;99.90
18240;DHT22;9244;50.828;4.718;2024-01-25T11:50:13;8.50;99.90
18240;DHT22;9244;50.828;4.718;2024-01-25T11:52:39;8.50;99.90
18240;DHT22;9244;50.828;4.718;2024-01-25T11:55:06;8.50;99.90
18240;DHT22;9244;50.828;4.718;2024-01-25T11:57:36;8.60;99.90
18240;DHT22;9244;50.828;4.718;2024-01-25T12:00:03;8.60;99.90
18240;DHT22;9244;50.828;4.718;2024-01-25T12:02:30;8.70;99.90
18240;DHT22;9244;50.828;4.718;2024-01-25T12:04:57;8.80;99.90
18240;DHT22;9244;50.828;4.718;2024-01-25T12:07:23;8.80;99.90
18240;DHT22;9244;50.828;4.718;2024-01-25T12:12:24;8.80;99.90
18240;DHT22;9244;50.828;4.718;2024-01-25T12:14:50;8.90;99.90
18240;DHT22;9244;50.828;4.718;2024-01-25T12:17:17;9.00;99.90
18240;DHT22;9244;50.828;4.718;2024-01-25T12:19:46;9.00;99.90
18240;DHT22;9244;50.828;4.718;2024-01-25T12:22:11;9.00;99.90
18240;DHT22;9244;50.828;4.718;2024-01-25T12:24:45;9.00;99.90
18240;DHT22;9244;50.828;4.718;2024-01-25T12:27:17;9.00;99.90
18240;DHT22;9244;50.828;4.718;2024-01-25T12:29:42;9.00;99.90
18240;DHT22;9244;50.828;4.718;2024-01-25T12:32:11;9.00;99.90
18240;DHT22;9244;50.828;4.718;2024-01-25T12:34:39;9.00;99.90
18240;DHT22;9244;50.828;4.718;2024-01-25T12:37:07;9.00;99.90
18240;DHT22;9244;50.828;4.718;2024-01-25T12:39:32;9.00;99.90
18240;DHT22;9244;50.828;4.718;2024-01-25T12:41:58;9.10;99.90
18240;DHT22;9244;50.828;4.718;2024-01-25T12:44:24;9.10;99.90
18240;DHT22;9244;50.828;4.718;2024-01-25T12:46:52;9.00;99.90
18240;DHT22;9244;50.828;4.718;2024-01-25T12:49:18;9.10;99.90
18240;DHT22;9244;50.828;4.718;2024-01-25T12:51:47;9.20;99.90
18240;DHT22;9244;50.828;4.718;2024-01-25T12:54:15;9.20;99.90
18240;DHT22;9244;50.828;4.718;2024-01-25T12:56:40;9.30;99.90
18240;DHT22;9244;50.828;4.718;2024-01-25T12:59:08;9.30;99.90
18240;DHT22;9244;50.828;4.718;2024-01-25T13:01:34;9.40;99.90
18240;DHT22;9244;50.828;4.718;2024-01-25T13:04:00;9.40;99.90
18240;DHT22;9244;50.828;4.718;2024-01-25T13:06:25;9.30;99.90
18240;DHT22;9244;50.828;4.718;2024-01-25T13:08:51;9.20;99.90
18240;DHT22;9244;50.828;4.718;2024-01-25T13:11:16;9.20;99.90
18240;DHT22;9244;50.828;4.718;2024-01-25T13:13:42;9.20;99.90
18240;DHT22;9244;50.828;4.718;2024-01-25T13:16:10;9.20;99.90
18240;DHT22;9244;50.828;4.718;2024-01-25T13:18:36;9.30;99.90
18240;DHT22;9244;50.828;4.718;2024-01-25T13:21:02;9.30;99.90
18240;DHT22;9244;50.828;4.718;2024-01-25T13:23:27;9.40;99.90
18240;DHT22;9244;50.828;4.718;2024-01-25T13:25:53;9.40;99.90
18240;DHT22;9244;50.828;4.718;2024-01-25T13:28:19;9.40;99.90
18240;DHT22;9244;50.828;4.718;2024-01-25T13:30:44;9.60;99.90
18240;DHT22;9244;50.828;4.718;2024-01-25T13:33:10;9.60;99.90
18240;DHT22;9244;50.828;4.718;2024-01-25T13:35:35;9.60;99.90
18240;DHT22;9244;50.828;4.718;2024-01-25T13:38:01;9.50;99.90
18240;DHT22;9244;50.828;4.718;2024-01-25T13:40:27;9.50;99.90
18240;DHT22;9244;50.828;4.718;2024-01-25T13:42:53;9.50;99.90
18240;DHT22;9244;50.828;4.718;2024-01-25T13:45:20;9.60;99.90
18240;DHT22;9244;50.828;4.718;2024-01-25T13:47:46;9.70;99.90
18240;DHT22;9244;50.828;4.718;2024-01-25T13:50:12;9.70;99.90
18240;DHT22;9244;50.828;4.718;2024-01-25T13:52:37;9.80;99.90
18240;DHT22;9244;50.828;4.718;2024-01-25T13:55:06;9.80;99.90
18240;DHT22;9244;50.828;4.718;2024-01-25T13:57:32;9.70;99.90
18240;DHT22;9244;50.828;4.718;2024-01-25T13:59:57;9.60;99.90
18240;DHT22;9244;50.828;4.718;2024-01-25T14:02:23;9.70;99.90
18240;DHT22;9244;50.828;4.718;2024-01-25T14:04:51;9.70;99.90
18240;DHT22;9244;50.828;4.718;2024-01-25T14:07:18;9.70;99.90
18240;DHT22;9244;50.828;4.718;2024-01-25T14:09:45;9.70;99.90
18240;DHT22;9244;50.828;4.718;2024-01-25T14:12:10;9.80;99.90
18240;DHT22;9244;50.828;4.718;2024-01-25T14:14:37;9.80;99.90
18240;DHT22;9244;50.828;4.718;2024-01-25T14:17:02;9.80;99.90
18240;DHT22;9244;50.828;4.718;2024-01-25T14:19:28;9.80;99.90
18240;DHT22;9244;50.828;4.718;2024-01-25T14:21:54;9.90;99.90
18240;DHT22;9244;50.828;4.718;2024-01-25T14:24:19;9.80;99.90
18240;DHT22;9244;50.828;4.718;2024-01-25T14:26:45;9.90;99.90
18240;DHT22;9244;50.828;4.718;2024-01-25T14:29:12;9.90;99.90
18240;DHT22;9244;50.828;4.718;2024-01-25T14:31:39;9.90;99.90
18240;DHT22;9244;50.828;4.718;2024-01-25T14:34:08;9.90;99.90
18240;DHT22;9244;50.828;4.718;2024-01-25T14:36:35;10.00;99.90
18240;DHT22;9244;50.828;4.718;2024-01-25T14:39:00;10.00;99.90
18240;DHT22;9244;50.828;4.718;2024-01-25T14:41:27;9.90;99.90
18240;DHT22;9244;50.828;4.718;2024-01-25T14:43:53;9.90;99.90
18240;DHT22;9244;50.828;4.718;2024-01-25T14:46:19;10.00;99.90
18240;DHT22;9244;50.828;4.718;2024-01-25T14:48:45;10.00;99.90
18240;DHT22;9244;50.828;4.718;2024-01-25T14:51:10;10.00;99.90
18240;DHT22;9244;50.828;4.718;2024-01-25T14:53:36;10.00;99.90
18240;DHT22;9244;50.828;4.718;2024-01-25T14:56:01;10.10;99.90
18240;DHT22;9244;50.828;4.718;2024-01-25T14:58:27;10.10;99.90
18240;DHT22;9244;50.828;4.718;2024-01-25T15:00:54;10.10;99.90
18240;DHT22;9244;50.828;4.718;2024-01-25T15:03:22;10.10;99.90
18240;DHT22;9244;50.828;4.718;2024-01-25T15:05:48;10.10;99.90
18240;DHT22;9244;50.828;4.718;2024-01-25T15:08:13;10.10;99.90
18240;DHT22;9244;50.828;4.718;2024-01-25T15:10:39;10.10;99.90
18240;DHT22;9244;50.828;4.718;2024-01-25T15:13:05;10.10;99.90
18240;DHT22;9244;50.828;4.718;2024-01-25T15:15:33;10.10;99.90
18240;DHT22;9244;50.828;4.718;2024-01-25T15:17:59;10.10;99.90
18240;DHT22;9244;50.828;4.718;2024-01-25T15:20:30;10.10;99.90
18240;DHT22;9244;50.828;4.718;2024-01-25T15:22:57;10.10;99.90
18240;DHT22;9244;50.828;4.718;2024-01-25T15:25:25;10.00;99.90
18240;DHT22;9244;50.828;4.718;2024-01-25T15:27:54;10.10;99.90
18240;DHT22;9244;50.828;4.718;2024-01-25T15:30:22;10.10;99.90
18240;DHT22;9244;50.828;4.718;2024-01-25T15:32:48;10.10;99.90
18240;DHT22;9244;50.828;4.718;2024-01-25T15:35:14;10.10;99.90
18240;DHT22;9244;50.828;4.718;2024-01-25T15:37:39;10.10;99.90
18240;DHT22;9244;50.828;4.718;2024-01-25T15:40:07;10.10;99.90
18240;DHT22;9244;50.828;4.718;2024-01-25T15:42:38;10.10;99.90
18240;DHT22;9244;50.828;4.718;2024-01-25T15:45:05;10.10;99.90
18240;DHT22;9244;50.828;4.718;2024-01-25T15:47:31;10.10;99.90
18240;DHT22;9244;50.828;4.718;2024-01-25T15:49:59;10.10;99.90
18240;DHT22;9244;50.828;4.718;2024-01-25T15:52:25;10.10;99.90
18240;DHT22;9244;50.828;4.718;2024-01-25T15:54:50;10.10;99.90
18240;DHT22;9244;50.828;4.718;2024-01-25T15:57:19;10.10;99.90
18240;DHT22;9244;50.828;4.718;2024-01-25T15:59:48;10.10;99.90